sensor_id;sensor_type;location;lat;lon;timestamp;P1;durP1;ratioP1;P2;durP2;ratioP2
71769;SDS011;66386;52.122;5.420;2023-08-12T00:00:05;6.90;;;3.30;;
71769;SDS011;66386;52.122;5.420;2023-08-12T00:02:38;5.45;;;2.83;;
71769;SDS011;66386;52.122;5.420;2023-08-12T00:05:06;5.63;;;3.30;;
71769;SDS011;66386;52.122;5.420;2023-08-12T00:07:33;5.90;;;2.70;;
71769;SDS011;66386;52.122;5.420;2023-08-12T00:10:01;4.50;;;2.83;;
71769;SDS011;66386;52.122;5.420;2023-08-12T00:12:31;5.73;;;3.30;;
71769;SDS011;66386;52.122;5.420;2023-08-12T00:14:58;4.88;;;3.58;;
71769;SDS011;66386;52.122;5.420;2023-08-12T00:17:25;5.63;;;2.67;;
71769;SDS011;66386;52.122;5.420;2023-08-12T00:19:52;4.03;;;2.80;;
71769;SDS011;66386;52.122;5.420;2023-08-12T00:22:19;3.85;;;3.08;;
71769;SDS011;66386;52.122;5.420;2023-08-12T00:24:45;5.80;;;3.47;;
71769;SDS011;66386;52.122;5.420;2023-08-12T00:27:12;5.53;;;3.25;;
71769;SDS011;66386;52.122;5.420;2023-08-12T00:29:39;6.22;;;3.20;;
71769;SDS011;66386;52.122;5.420;2023-08-12T00:32:06;7.40;;;3.35;;
71769;SDS011;66386;52.122;5.420;2023-08-12T00:34:34;5.68;;;3.15;;
71769;SDS011;66386;52.122;5.420;2023-08-12T00:37:01;5.77;;;3.33;;
71769;SDS011;66386;52.122;5.420;2023-08-12T00:39:27;7.43;;;3.45;;
71769;SDS011;66386;52.122;5.420;2023-08-12T00:41:54;6.85;;;2.90;;
71769;SDS011;66386;52.122;5.420;2023-08-12T00:44:20;7.05;;;3.65;;
71769;SDS011;66386;52.122;5.420;2023-08-12T00:46:47;5.97;;;3.80;;
71769;SDS011;66386;52.122;5.420;2023-08-12T00:49:15;6.70;;;3.33;;
71769;SDS011;66386;52.122;5.420;2023-08-12T00:51:42;7.38;;;3.25;;
71769;SDS011;66386;52.122;5.420;2023-08-12T00:54:13;5.28;;;3.72;;
71769;SDS011;66386;52.122;5.420;2023-08-12T00:56:41;6.47;;;3.50;;
71769;SDS011;66386;52.122;5.420;2023-08-12T00:59:08;6.63;;;3.92;;
71769;SDS011;66386;52.122;5.420;2023-08-12T01:01:38;8.07;;;3.93;;
71769;SDS011;66386;52.122;5.420;2023-08-12T01:04:07;7.10;;;3.58;;
71769;SDS011;66386;52.122;5.420;2023-08-12T01:06:34;5.63;;;4.03;;
71769;SDS011;66386;52.122;5.420;2023-08-12T01:09:01;5.13;;;3.70;;
71769;SDS011;66386;52.122;5.420;2023-08-12T01:11:50;6.90;;;3.97;;
71769;SDS011;66386;52.122;5.420;2023-08-12T01:14:43;6.97;;;4.33;;
71769;SDS011;66386;52.122;5.420;2023-08-12T01:17:15;7.38;;;3.58;;
71769;SDS011;66386;52.122;5.420;2023-08-12T01:19:43;6.00;;;4.20;;
71769;SDS011;66386;52.122;5.420;2023-08-12T01:22:13;7.68;;;4.88;;
71769;SDS011;66386;52.122;5.420;2023-08-12T01:24:43;6.60;;;4.63;;
71769;SDS011;66386;52.122;5.420;2023-08-12T01:27:11;10.37;;;5.20;;
71769;SDS011;66386;52.122;5.420;2023-08-12T01:29:44;6.95;;;4.30;;
71769;SDS011;66386;52.122;5.420;2023-08-12T01:32:23;8.98;;;4.75;;
71769;SDS011;66386;52.122;5.420;2023-08-12T01:34:53;9.50;;;5.22;;
71769;SDS011;66386;52.122;5.420;2023-08-12T01:37:33;7.63;;;4.60;;
71769;SDS011;66386;52.122;5.420;2023-08-12T01:40:02;8.37;;;4.73;;
71769;SDS011;66386;52.122;5.420;2023-08-12T01:42:32;8.70;;;5.47;;
71769;SDS011;66386;52.122;5.420;2023-08-12T01:45:00;13.60;;;5.88;;
71769;SDS011;66386;52.122;5.420;2023-08-12T01:47:28;9.82;;;5.53;;
71769;SDS011;66386;52.122;5.420;2023-08-12T01:49:55;10.27;;;5.53;;
71769;SDS011;66386;52.122;5.420;2023-08-12T01:52:22;9.43;;;5.60;;
71769;SDS011;66386;52.122;5.420;2023-08-12T01:54:48;10.60;;;5.63;;
71769;SDS011;66386;52.122;5.420;2023-08-12T01:57:15;12.05;;;5.47;;
71769;SDS011;66386;52.122;5.420;2023-08-12T01:59:41;11.20;;;5.63;;
71769;SDS011;66386;52.122;5.420;2023-08-12T02:02:10;9.93;;;5.20;;
71769;SDS011;66386;52.122;5.420;2023-08-12T02:04:37;8.87;;;5.57;;
71769;SDS011;66386;52.122;5.420;2023-08-12T02:07:04;9.60;;;6.18;;
71769;SDS011;66386;52.122;5.420;2023-08-12T02:09:30;10.40;;;5.60;;
71769;SDS011;66386;52.122;5.420;2023-08-12T02:11:57;8.60;;;5.22;;
71769;SDS011;66386;52.122;5.420;2023-08-12T02:14:24;8.10;;;5.45;;
71769;SDS011;66386;52.122;5.420;2023-08-12T02:16:50;9.63;;;5.80;;
71769;SDS011;66386;52.122;5.420;2023-08-12T02:19:17;7.65;;;4.90;;
71769;SDS011;66386;52.122;5.420;2023-08-12T02:21:43;9.38;;;5.57;;
71769;SDS011;66386;52.122;5.420;2023-08-12T02:24:10;8.43;;;5.60;;
71769;SDS011;66386;52.122;5.420;2023-08-12T02:26:37;11.00;;;5.30;;
71769;SDS011;66386;52.122;5.420;2023-08-12T02:29:04;10.37;;;5.73;;
71769;SDS011;66386;52.122;5.420;2023-08-12T02:31:31;9.23;;;5.70;;
71769;SDS011;66386;52.122;5.420;2023-08-12T02:33:57;7.13;;;4.95;;
71769;SDS011;66386;52.122;5.420;2023-08-12T02:36:24;10.20;;;5.57;;
71769;SDS011;66386;52.122;5.420;2023-08-12T02:38:52;9.15;;;6.28;;
71769;SDS011;66386;52.122;5.420;2023-08-12T02:41:18;11.07;;;5.53;;
71769;SDS011;66386;52.122;5.420;2023-08-12T02:43:45;12.20;;;6.25;;
71769;SDS011;66386;52.122;5.420;2023-08-12T02:46:11;9.68;;;6.00;;
71769;SDS011;66386;52.122;5.420;2023-08-12T02:48:39;9.18;;;6.28;;
71769;SDS011;66386;52.122;5.420;2023-08-12T02:51:05;12.07;;;6.13;;
71769;SDS011;66386;52.122;5.420;2023-08-12T02:53:32;8.07;;;5.87;;
71769;SDS011;66386;52.122;5.420;2023-08-12T02:55:58;10.73;;;6.85;;
71769;SDS011;66386;52.122;5.420;2023-08-12T02:58:25;11.18;;;5.63;;
71769;SDS011;66386;52.122;5.420;2023-08-12T03:00:52;11.43;;;6.72;;
71769;SDS011;66386;52.122;5.420;2023-08-12T03:03:21;9.65;;;6.40;;
71769;SDS011;66386;52.122;5.420;2023-08-12T03:05:48;10.20;;;7.07;;
71769;SDS011;66386;52.122;5.420;2023-08-12T03:08:15;16.48;;;7.55;;
71769;SDS011;66386;52.122;5.420;2023-08-12T03:10:41;15.20;;;7.32;;
71769;SDS011;66386;52.122;5.420;2023-08-12T03:13:08;14.30;;;8.55;;
71769;SDS011;66386;52.122;5.420;2023-08-12T03:15:38;11.57;;;6.80;;
71769;SDS011;66386;52.122;5.420;2023-08-12T03:18:05;13.13;;;6.97;;
71769;SDS011;66386;52.122;5.420;2023-08-12T03:20:31;15.20;;;8.63;;
71769;SDS011;66386;52.122;5.420;2023-08-12T03:22:58;16.40;;;8.48;;
71769;SDS011;66386;52.122;5.420;2023-08-12T03:25:26;11.93;;;7.22;;
71769;SDS011;66386;52.122;5.420;2023-08-12T03:27:53;11.32;;;7.07;;
71769;SDS011;66386;52.122;5.420;2023-08-12T03:30:19;13.00;;;7.17;;
71769;SDS011;66386;52.122;5.420;2023-08-12T03:32:46;13.63;;;8.07;;
71769;SDS011;66386;52.122;5.420;2023-08-12T03:35:12;11.40;;;7.45;;
71769;SDS011;66386;52.122;5.420;2023-08-12T03:37:39;13.27;;;8.88;;
71769;SDS011;66386;52.122;5.420;2023-08-12T03:40:05;15.63;;;8.20;;
71769;SDS011;66386;52.122;5.420;2023-08-12T03:42:33;11.67;;;7.63;;
71769;SDS011;66386;52.122;5.420;2023-08-12T03:44:59;13.45;;;7.10;;
71769;SDS011;66386;52.122;5.420;2023-08-12T03:47:26;10.48;;;7.57;;
71769;SDS011;66386;52.122;5.420;2023-08-12T03:49:54;10.65;;;7.80;;
71769;SDS011;66386;52.122;5.420;2023-08-12T03:52:20;10.35;;;7.30;;
71769;SDS011;66386;52.122;5.420;2023-08-12T03:54:47;12.53;;;7.80;;
71769;SDS011;66386;52.122;5.420;2023-08-12T03:57:13;13.75;;;8.07;;
71769;SDS011;66386;52.122;5.420;2023-08-12T03:59:40;14.40;;;7.47;;
71769;SDS011;66386;52.122;5.420;2023-08-12T04:02:06;13.10;;;8.18;;
71769;SDS011;66386;52.122;5.420;2023-08-12T04:04:33;12.43;;;8.20;;
71769;SDS011;66386;52.122;5.420;2023-08-12T04:07:00;18.27;;;9.27;;
71769;SDS011;66386;52.122;5.420;2023-08-12T04:09:26;12.07;;;8.13;;
71769;SDS011;66386;52.122;5.420;2023-08-12T04:11:53;12.32;;;7.63;;
71769;SDS011;66386;52.122;5.420;2023-08-12T04:14:19;14.52;;;8.40;;
71769;SDS011;66386;52.122;5.420;2023-08-12T04:16:46;15.27;;;7.82;;
71769;SDS011;66386;52.122;5.420;2023-08-12T04:19:12;15.00;;;8.97;;
71769;SDS011;66386;52.122;5.420;2023-08-12T04:21:39;14.07;;;8.43;;
71769;SDS011;66386;52.122;5.420;2023-08-12T04:24:06;18.23;;;9.90;;
71769;SDS011;66386;52.122;5.420;2023-08-12T04:26:33;16.20;;;9.38;;
71769;SDS011;66386;52.122;5.420;2023-08-12T04:29:00;15.30;;;9.70;;
71769;SDS011;66386;52.122;5.420;2023-08-12T04:31:26;12.57;;;7.80;;
71769;SDS011;66386;52.122;5.420;2023-08-12T04:33:53;16.15;;;9.80;;
71769;SDS011;66386;52.122;5.420;2023-08-12T04:36:19;14.80;;;9.65;;
71769;SDS011;66386;52.122;5.420;2023-08-12T04:38:46;16.20;;;9.63;;
71769;SDS011;66386;52.122;5.420;2023-08-12T04:41:12;14.45;;;10.50;;
71769;SDS011;66386;52.122;5.420;2023-08-12T04:43:39;16.30;;;10.73;;
71769;SDS011;66386;52.122;5.420;2023-08-12T04:46:06;17.70;;;10.57;;
71769;SDS011;66386;52.122;5.420;2023-08-12T04:48:33;17.58;;;11.48;;
71769;SDS011;66386;52.122;5.420;2023-08-12T04:50:59;14.70;;;10.50;;
71769;SDS011;66386;52.122;5.420;2023-08-12T04:53:27;18.10;;;10.48;;
71769;SDS011;66386;52.122;5.420;2023-08-12T04:55:55;16.83;;;10.53;;
71769;SDS011;66386;52.122;5.420;2023-08-12T04:58:22;15.45;;;10.20;;
71769;SDS011;66386;52.122;5.420;2023-08-12T05:00:49;14.20;;;10.13;;
71769;SDS011;66386;52.122;5.420;2023-08-12T05:03:18;14.52;;;10.23;;
71769;SDS011;66386;52.122;5.420;2023-08-12T05:05:48;14.63;;;9.40;;
71769;SDS011;66386;52.122;5.420;2023-08-12T05:08:19;16.03;;;9.27;;
71769;SDS011;66386;52.122;5.420;2023-08-12T05:10:48;14.18;;;8.90;;
71769;SDS011;66386;52.122;5.420;2023-08-12T05:13:16;14.23;;;9.02;;
71769;SDS011;66386;52.122;5.420;2023-08-12T05:15:46;11.70;;;8.60;;
71769;SDS011;66386;52.122;5.420;2023-08-12T05:18:13;13.23;;;9.27;;
71769;SDS011;66386;52.122;5.420;2023-08-12T05:20:41;15.23;;;8.60;;
71769;SDS011;66386;52.122;5.420;2023-08-12T05:23:11;14.35;;;8.70;;
71769;SDS011;66386;52.122;5.420;2023-08-12T05:25:38;13.65;;;9.52;;
71769;SDS011;66386;52.122;5.420;2023-08-12T05:28:06;12.98;;;8.95;;
71769;SDS011;66386;52.122;5.420;2023-08-12T05:30:32;11.95;;;7.78;;
71769;SDS011;66386;52.122;5.420;2023-08-12T05:32:59;12.03;;;8.53;;
71769;SDS011;66386;52.122;5.420;2023-08-12T05:35:25;10.45;;;7.10;;
71769;SDS011;66386;52.122;5.420;2023-08-12T05:37:52;11.52;;;8.70;;
71769;SDS011;66386;52.122;5.420;2023-08-12T05:40:19;12.07;;;7.95;;
71769;SDS011;66386;52.122;5.420;2023-08-12T05:42:46;12.50;;;7.45;;
71769;SDS011;66386;52.122;5.420;2023-08-12T05:45:12;13.87;;;7.80;;
71769;SDS011;66386;52.122;5.420;2023-08-12T05:47:39;11.77;;;8.25;;
71769;SDS011;66386;52.122;5.420;2023-08-12T05:50:05;11.52;;;7.82;;
71769;SDS011;66386;52.122;5.420;2023-08-12T05:52:32;12.50;;;7.90;;
71769;SDS011;66386;52.122;5.420;2023-08-12T05:54:59;13.95;;;8.95;;
71769;SDS011;66386;52.122;5.420;2023-08-12T05:57:26;15.50;;;8.30;;
71769;SDS011;66386;52.122;5.420;2023-08-12T05:59:55;14.32;;;9.02;;
71769;SDS011;66386;52.122;5.420;2023-08-12T06:02:21;11.88;;;9.35;;
71769;SDS011;66386;52.122;5.420;2023-08-12T06:04:48;13.93;;;8.55;;
71769;SDS011;66386;52.122;5.420;2023-08-12T06:07:15;11.50;;;8.38;;
71769;SDS011;66386;52.122;5.420;2023-08-12T06:09:41;11.70;;;8.10;;
71769;SDS011;66386;52.122;5.420;2023-08-12T06:12:08;11.55;;;8.38;;
71769;SDS011;66386;52.122;5.420;2023-08-12T06:14:38;12.40;;;8.23;;
71769;SDS011;66386;52.122;5.420;2023-08-12T06:17:05;14.32;;;9.00;;
71769;SDS011;66386;52.122;5.420;2023-08-12T06:19:32;8.95;;;7.70;;
71769;SDS011;66386;52.122;5.420;2023-08-12T06:21:58;11.73;;;8.00;;
71769;SDS011;66386;52.122;5.420;2023-08-12T06:24:25;10.80;;;7.38;;
71769;SDS011;66386;52.122;5.420;2023-08-12T06:26:51;9.73;;;7.43;;
71769;SDS011;66386;52.122;5.420;2023-08-12T06:29:18;10.43;;;7.05;;
71769;SDS011;66386;52.122;5.420;2023-08-12T06:31:45;11.27;;;6.80;;
71769;SDS011;66386;52.122;5.420;2023-08-12T06:34:11;9.80;;;6.40;;
71769;SDS011;66386;52.122;5.420;2023-08-12T06:36:38;9.23;;;6.22;;
71769;SDS011;66386;52.122;5.420;2023-08-12T06:39:05;8.43;;;6.25;;
71769;SDS011;66386;52.122;5.420;2023-08-12T06:41:31;7.65;;;5.32;;
71769;SDS011;66386;52.122;5.420;2023-08-12T06:43:58;9.02;;;5.70;;
71769;SDS011;66386;52.122;5.420;2023-08-12T06:46:24;7.83;;;5.37;;
71769;SDS011;66386;52.122;5.420;2023-08-12T06:48:51;7.05;;;5.00;;
71769;SDS011;66386;52.122;5.420;2023-08-12T06:51:18;8.55;;;5.00;;
71769;SDS011;66386;52.122;5.420;2023-08-12T06:53:46;5.80;;;4.70;;
71769;SDS011;66386;52.122;5.420;2023-08-12T06:56:13;6.88;;;5.13;;
71769;SDS011;66386;52.122;5.420;2023-08-12T06:58:40;6.60;;;4.40;;
71769;SDS011;66386;52.122;5.420;2023-08-12T07:01:06;5.47;;;4.00;;
71769;SDS011;66386;52.122;5.420;2023-08-12T07:03:33;6.22;;;4.32;;
71769;SDS011;66386;52.122;5.420;2023-08-12T07:05:59;5.43;;;4.30;;
71769;SDS011;66386;52.122;5.420;2023-08-12T07:08:26;5.13;;;3.78;;
71769;SDS011;66386;52.122;5.420;2023-08-12T07:10:53;3.80;;;3.43;;
71769;SDS011;66386;52.122;5.420;2023-08-12T07:13:20;4.80;;;3.45;;
71769;SDS011;66386;52.122;5.420;2023-08-12T07:15:46;4.60;;;3.30;;
71769;SDS011;66386;52.122;5.420;2023-08-12T07:18:13;3.22;;;2.92;;
71769;SDS011;66386;52.122;5.420;2023-08-12T07:20:40;3.13;;;2.83;;
71769;SDS011;66386;52.122;5.420;2023-08-12T07:23:06;4.90;;;3.37;;
71769;SDS011;66386;52.122;5.420;2023-08-12T07:25:33;4.55;;;3.70;;
71769;SDS011;66386;52.122;5.420;2023-08-12T07:27:59;5.15;;;3.20;;
71769;SDS011;66386;52.122;5.420;2023-08-12T07:30:26;3.50;;;3.20;;
71769;SDS011;66386;52.122;5.420;2023-08-12T07:32:53;3.88;;;3.33;;
71769;SDS011;66386;52.122;5.420;2023-08-12T07:35:19;6.73;;;4.07;;
71769;SDS011;66386;52.122;5.420;2023-08-12T07:37:46;3.88;;;3.28;;
71769;SDS011;66386;52.122;5.420;2023-08-12T07:40:12;4.70;;;3.58;;
71769;SDS011;66386;52.122;5.420;2023-08-12T07:42:42;3.40;;;3.10;;
71769;SDS011;66386;52.122;5.420;2023-08-12T07:45:08;2.88;;;2.58;;
71769;SDS011;66386;52.122;5.420;2023-08-12T07:47:35;3.80;;;2.77;;
71769;SDS011;66386;52.122;5.420;2023-08-12T07:50:05;3.22;;;2.33;;
71769;SDS011;66386;52.122;5.420;2023-08-12T07:52:32;3.28;;;2.60;;
71769;SDS011;66386;52.122;5.420;2023-08-12T07:54:58;2.70;;;2.13;;
71769;SDS011;66386;52.122;5.420;2023-08-12T07:57:25;3.35;;;2.22;;
71769;SDS011;66386;52.122;5.420;2023-08-12T07:59:51;3.17;;;2.43;;
71769;SDS011;66386;52.122;5.420;2023-08-12T08:02:18;2.72;;;2.28;;
71769;SDS011;66386;52.122;5.420;2023-08-12T08:04:45;2.33;;;1.98;;
71769;SDS011;66386;52.122;5.420;2023-08-12T08:07:15;3.60;;;1.80;;
71769;SDS011;66386;52.122;5.420;2023-08-12T08:09:43;2.28;;;2.08;;
71769;SDS011;66386;52.122;5.420;2023-08-12T08:12:10;2.40;;;1.93;;
71769;SDS011;66386;52.122;5.420;2023-08-12T08:14:37;3.55;;;1.90;;
71769;SDS011;66386;52.122;5.420;2023-08-12T08:17:04;2.58;;;2.00;;
71769;SDS011;66386;52.122;5.420;2023-08-12T08:19:34;2.25;;;2.05;;
71769;SDS011;66386;52.122;5.420;2023-08-12T08:22:01;2.05;;;1.83;;
71769;SDS011;66386;52.122;5.420;2023-08-12T08:24:29;2.90;;;1.70;;
71769;SDS011;66386;52.122;5.420;2023-08-12T08:26:55;2.88;;;1.85;;
71769;SDS011;66386;52.122;5.420;2023-08-12T08:29:23;3.63;;;1.70;;
71769;SDS011;66386;52.122;5.420;2023-08-12T08:31:49;2.65;;;1.70;;
71769;SDS011;66386;52.122;5.420;2023-08-12T08:34:16;1.92;;;1.80;;
71769;SDS011;66386;52.122;5.420;2023-08-12T08:36:42;1.60;;;1.30;;
71769;SDS011;66386;52.122;5.420;2023-08-12T08:39:09;1.60;;;1.40;;
71769;SDS011;66386;52.122;5.420;2023-08-12T08:41:37;2.22;;;1.25;;
71769;SDS011;66386;52.122;5.420;2023-08-12T08:44:08;1.20;;;1.00;;
71769;SDS011;66386;52.122;5.420;2023-08-12T08:46:35;2.60;;;1.10;;
71769;SDS011;66386;52.122;5.420;2023-08-12T08:49:02;2.03;;;1.00;;
71769;SDS011;66386;52.122;5.420;2023-08-12T08:51:30;1.27;;;1.17;;
71769;SDS011;66386;52.122;5.420;2023-08-12T08:53:58;1.10;;;0.93;;
71769;SDS011;66386;52.122;5.420;2023-08-12T08:56:29;0.90;;;0.65;;
71769;SDS011;66386;52.122;5.420;2023-08-12T08:59:05;0.60;;;0.60;;
71769;SDS011;66386;52.122;5.420;2023-08-12T09:01:31;1.00;;;0.60;;
71769;SDS011;66386;52.122;5.420;2023-08-12T09:03:58;0.80;;;0.43;;
71769;SDS011;66386;52.122;5.420;2023-08-12T09:06:25;1.88;;;0.57;;
71769;SDS011;66386;52.122;5.420;2023-08-12T09:08:56;1.13;;;0.30;;
71769;SDS011;66386;52.122;5.420;2023-08-12T09:11:23;1.35;;;0.38;;
71769;SDS011;66386;52.122;5.420;2023-08-12T09:13:53;0.80;;;0.40;;
71769;SDS011;66386;52.122;5.420;2023-08-12T09:16:20;1.65;;;0.40;;
71769;SDS011;66386;52.122;5.420;2023-08-12T09:18:46;1.27;;;0.47;;
71769;SDS011;66386;52.122;5.420;2023-08-12T09:21:15;2.08;;;0.38;;
71769;SDS011;66386;52.122;5.420;2023-08-12T09:23:47;1.23;;;0.40;;
71769;SDS011;66386;52.122;5.420;2023-08-12T09:26:15;1.33;;;0.40;;
71769;SDS011;66386;52.122;5.420;2023-08-12T09:28:44;2.42;;;0.40;;
71769;SDS011;66386;52.122;5.420;2023-08-12T09:31:22;2.10;;;0.50;;
71769;SDS011;66386;52.122;5.420;2023-08-12T09:34:14;3.63;;;0.30;;
71769;SDS011;66386;52.122;5.420;2023-08-12T09:36:40;3.22;;;0.82;;
71769;SDS011;66386;52.122;5.420;2023-08-12T09:39:07;1.33;;;0.30;;
71769;SDS011;66386;52.122;5.420;2023-08-12T09:41:37;3.78;;;0.50;;
71769;SDS011;66386;52.122;5.420;2023-08-12T09:44:05;2.25;;;0.57;;
71769;SDS011;66386;52.122;5.420;2023-08-12T09:46:35;3.35;;;0.70;;
71769;SDS011;66386;52.122;5.420;2023-08-12T09:49:01;2.10;;;0.60;;
71769;SDS011;66386;52.122;5.420;2023-08-12T09:51:35;2.67;;;0.50;;
71769;SDS011;66386;52.122;5.420;2023-08-12T09:54:02;3.88;;;0.85;;
71769;SDS011;66386;52.122;5.420;2023-08-12T09:56:29;1.98;;;0.80;;
71769;SDS011;66386;52.122;5.420;2023-08-12T09:59:02;3.55;;;0.57;;
71769;SDS011;66386;52.122;5.420;2023-08-12T10:01:33;4.38;;;0.80;;
71769;SDS011;66386;52.122;5.420;2023-08-12T10:04:00;3.43;;;0.80;;
71769;SDS011;66386;52.122;5.420;2023-08-12T10:06:27;4.35;;;1.02;;
71769;SDS011;66386;52.122;5.420;2023-08-12T10:08:59;5.13;;;0.70;;
71769;SDS011;66386;52.122;5.420;2023-08-12T10:11:26;2.22;;;0.70;;
71769;SDS011;66386;52.122;5.420;2023-08-12T10:13:54;3.42;;;0.75;;
71769;SDS011;66386;52.122;5.420;2023-08-12T10:16:22;4.53;;;0.60;;
71769;SDS011;66386;52.122;5.420;2023-08-12T10:18:49;3.40;;;0.60;;
71769;SDS011;66386;52.122;5.420;2023-08-12T10:21:16;3.35;;;0.90;;
71769;SDS011;66386;52.122;5.420;2023-08-12T10:23:44;2.58;;;0.65;;
71769;SDS011;66386;52.122;5.420;2023-08-12T10:26:13;2.88;;;0.50;;
71769;SDS011;66386;52.122;5.420;2023-08-12T10:28:41;3.73;;;0.77;;
71769;SDS011;66386;52.122;5.420;2023-08-12T10:31:08;4.30;;;0.63;;
71769;SDS011;66386;52.122;5.420;2023-08-12T10:33:38;3.78;;;0.60;;
71769;SDS011;66386;52.122;5.420;2023-08-12T10:36:05;3.58;;;0.60;;
71769;SDS011;66386;52.122;5.420;2023-08-12T10:38:32;4.75;;;0.73;;
71769;SDS011;66386;52.122;5.420;2023-08-12T10:41:16;2.80;;;0.60;;
71769;SDS011;66386;52.122;5.420;2023-08-12T10:48:58;4.05;;;0.90;;
71769;SDS011;66386;52.122;5.420;2023-08-12T10:51:52;2.53;;;0.70;;
71769;SDS011;66386;52.122;5.420;2023-08-12T10:54:23;3.83;;;0.70;;
71769;SDS011;66386;52.122;5.420;2023-08-12T10:59:50;4.15;;;0.95;;
71769;SDS011;66386;52.122;5.420;2023-08-12T11:02:20;3.67;;;0.63;;
71769;SDS011;66386;52.122;5.420;2023-08-12T11:05:03;2.33;;;0.60;;
71769;SDS011;66386;52.122;5.420;2023-08-12T11:10:12;4.10;;;1.08;;
71769;SDS011;66386;52.122;5.420;2023-08-12T11:13:02;3.03;;;0.80;;
71769;SDS011;66386;52.122;5.420;2023-08-12T11:18:15;2.58;;;0.98;;
71769;SDS011;66386;52.122;5.420;2023-08-12T11:20:47;3.70;;;0.80;;
71769;SDS011;66386;52.122;5.420;2023-08-12T11:23:15;3.88;;;1.00;;
71769;SDS011;66386;52.122;5.420;2023-08-12T11:25:42;2.53;;;1.08;;
71769;SDS011;66386;52.122;5.420;2023-08-12T11:28:10;4.38;;;0.90;;
71769;SDS011;66386;52.122;5.420;2023-08-12T11:30:39;3.55;;;0.82;;
71769;SDS011;66386;52.122;5.420;2023-08-12T11:33:08;4.17;;;0.90;;
71769;SDS011;66386;52.122;5.420;2023-08-12T11:35:36;4.35;;;0.98;;
71769;SDS011;66386;52.122;5.420;2023-08-12T11:38:04;2.67;;;0.50;;
71769;SDS011;66386;52.122;5.420;2023-08-12T11:40:31;3.83;;;0.80;;
71769;SDS011;66386;52.122;5.420;2023-08-12T11:42:58;4.40;;;1.00;;
71769;SDS011;66386;52.122;5.420;2023-08-12T11:45:25;8.93;;;1.30;;
71769;SDS011;66386;52.122;5.420;2023-08-12T11:47:55;8.77;;;1.00;;
71769;SDS011;66386;52.122;5.420;2023-08-12T11:50:29;5.85;;;1.83;;
71769;SDS011;66386;52.122;5.420;2023-08-12T11:52:55;2.63;;;0.52;;
71769;SDS011;66386;52.122;5.420;2023-08-12T11:55:22;3.33;;;0.75;;
71769;SDS011;66386;52.122;5.420;2023-08-12T11:57:52;4.63;;;0.60;;
71769;SDS011;66386;52.122;5.420;2023-08-12T12:00:19;3.63;;;0.73;;
71769;SDS011;66386;52.122;5.420;2023-08-12T12:02:52;3.08;;;1.00;;
71769;SDS011;66386;52.122;5.420;2023-08-12T12:05:29;2.80;;;0.80;;
71769;SDS011;66386;52.122;5.420;2023-08-12T12:08:01;3.08;;;0.98;;
71769;SDS011;66386;52.122;5.420;2023-08-12T12:10:31;3.93;;;0.90;;
71769;SDS011;66386;52.122;5.420;2023-08-12T12:13:01;4.75;;;0.80;;
71769;SDS011;66386;52.122;5.420;2023-08-12T12:15:41;3.00;;;0.80;;
71769;SDS011;66386;52.122;5.420;2023-08-12T12:18:12;6.55;;;1.20;;
71769;SDS011;66386;52.122;5.420;2023-08-12T12:20:58;3.08;;;0.82;;
71769;SDS011;66386;52.122;5.420;2023-08-12T12:23:28;2.70;;;0.63;;
71769;SDS011;66386;52.122;5.420;2023-08-12T12:26:04;4.55;;;0.95;;
71769;SDS011;66386;52.122;5.420;2023-08-12T12:28:31;3.20;;;0.68;;
71769;SDS011;66386;52.122;5.420;2023-08-12T12:30:58;3.38;;;0.57;;
71769;SDS011;66386;52.122;5.420;2023-08-12T12:33:25;4.22;;;0.82;;
71769;SDS011;66386;52.122;5.420;2023-08-12T12:35:51;2.47;;;0.60;;
71769;SDS011;66386;52.122;5.420;2023-08-12T12:38:25;4.07;;;0.80;;
71769;SDS011;66386;52.122;5.420;2023-08-12T12:40:53;6.30;;;2.25;;
71769;SDS011;66386;52.122;5.420;2023-08-12T12:43:22;4.97;;;0.90;;
71769;SDS011;66386;52.122;5.420;2023-08-12T12:45:49;5.60;;;1.23;;
71769;SDS011;66386;52.122;5.420;2023-08-12T12:48:16;5.10;;;0.53;;
71769;SDS011;66386;52.122;5.420;2023-08-12T12:50:42;3.65;;;1.10;;
71769;SDS011;66386;52.122;5.420;2023-08-12T12:53:09;2.80;;;0.98;;
71769;SDS011;66386;52.122;5.420;2023-08-12T12:55:35;3.58;;;0.65;;
71769;SDS011;66386;52.122;5.420;2023-08-12T12:58:02;4.68;;;0.80;;
71769;SDS011;66386;52.122;5.420;2023-08-12T13:00:28;4.97;;;0.70;;
71769;SDS011;66386;52.122;5.420;2023-08-12T13:02:55;2.45;;;0.70;;
71769;SDS011;66386;52.122;5.420;2023-08-12T13:05:21;5.18;;;0.90;;
71769;SDS011;66386;52.122;5.420;2023-08-12T13:07:48;3.28;;;0.60;;
71769;SDS011;66386;52.122;5.420;2023-08-12T13:10:20;5.25;;;0.98;;
71769;SDS011;66386;52.122;5.420;2023-08-12T13:12:47;3.00;;;0.57;;
71769;SDS011;66386;52.122;5.420;2023-08-12T13:15:13;2.40;;;0.73;;
71769;SDS011;66386;52.122;5.420;2023-08-12T13:17:40;8.13;;;0.90;;
71769;SDS011;66386;52.122;5.420;2023-08-12T13:20:07;5.25;;;0.95;;
71769;SDS011;66386;52.122;5.420;2023-08-12T13:22:37;6.88;;;0.80;;
71769;SDS011;66386;52.122;5.420;2023-08-12T13:25:04;3.70;;;0.90;;
71769;SDS011;66386;52.122;5.420;2023-08-12T13:27:32;3.90;;;0.60;;
71769;SDS011;66386;52.122;5.420;2023-08-12T13:29:58;4.38;;;0.73;;
71769;SDS011;66386;52.122;5.420;2023-08-12T13:32:25;2.78;;;0.60;;
71769;SDS011;66386;52.122;5.420;2023-08-12T13:34:51;5.60;;;0.93;;
71769;SDS011;66386;52.122;5.420;2023-08-12T13:37:18;4.00;;;0.90;;
71769;SDS011;66386;52.122;5.420;2023-08-12T13:39:44;7.75;;;1.00;;
71769;SDS011;66386;52.122;5.420;2023-08-12T13:42:11;5.82;;;0.98;;
71769;SDS011;66386;52.122;5.420;2023-08-12T13:44:38;4.43;;;1.15;;
71769;SDS011;66386;52.122;5.420;2023-08-12T13:47:08;6.15;;;0.80;;
71769;SDS011;66386;52.122;5.420;2023-08-12T13:49:37;6.03;;;0.77;;
71769;SDS011;66386;52.122;5.420;2023-08-12T13:52:04;4.35;;;0.70;;
71769;SDS011;66386;52.122;5.420;2023-08-12T13:54:30;2.80;;;0.55;;
71769;SDS011;66386;52.122;5.420;2023-08-12T13:56:59;2.85;;;0.70;;
71769;SDS011;66386;52.122;5.420;2023-08-12T13:59:25;3.75;;;0.70;;
71769;SDS011;66386;52.122;5.420;2023-08-12T14:01:52;6.47;;;1.00;;
71769;SDS011;66386;52.122;5.420;2023-08-12T14:04:18;5.82;;;1.10;;
71769;SDS011;66386;52.122;5.420;2023-08-12T14:06:46;6.15;;;1.63;;
71769;SDS011;66386;52.122;5.420;2023-08-12T14:09:12;4.53;;;0.88;;
71769;SDS011;66386;52.122;5.420;2023-08-12T14:11:40;5.45;;;1.20;;
71769;SDS011;66386;52.122;5.420;2023-08-12T14:14:06;6.60;;;1.00;;
71769;SDS011;66386;52.122;5.420;2023-08-12T14:16:36;6.28;;;0.70;;
71769;SDS011;66386;52.122;5.420;2023-08-12T14:19:03;4.25;;;1.00;;
71769;SDS011;66386;52.122;5.420;2023-08-12T14:21:30;3.80;;;1.00;;
71769;SDS011;66386;52.122;5.420;2023-08-12T14:23:57;5.38;;;0.80;;
71769;SDS011;66386;52.122;5.420;2023-08-12T14:26:23;7.83;;;1.37;;
71769;SDS011;66386;52.122;5.420;2023-08-12T14:28:50;7.38;;;1.00;;
71769;SDS011;66386;52.122;5.420;2023-08-12T14:31:16;5.05;;;0.77;;
71769;SDS011;66386;52.122;5.420;2023-08-12T14:33:46;5.65;;;0.70;;
71769;SDS011;66386;52.122;5.420;2023-08-12T14:36:13;2.55;;;0.80;;
71769;SDS011;66386;52.122;5.420;2023-08-12T14:38:39;5.97;;;1.37;;
71769;SDS011;66386;52.122;5.420;2023-08-12T14:41:06;6.32;;;0.90;;
71769;SDS011;66386;52.122;5.420;2023-08-12T14:43:33;4.60;;;1.00;;
71769;SDS011;66386;52.122;5.420;2023-08-12T14:45:59;4.47;;;0.80;;
71769;SDS011;66386;52.122;5.420;2023-08-12T14:48:26;4.80;;;0.80;;
71769;SDS011;66386;52.122;5.420;2023-08-12T14:50:53;7.77;;;0.80;;
71769;SDS011;66386;52.122;5.420;2023-08-12T14:53:19;5.03;;;1.10;;
71769;SDS011;66386;52.122;5.420;2023-08-12T14:55:46;4.47;;;1.00;;
71769;SDS011;66386;52.122;5.420;2023-08-12T14:58:14;5.03;;;1.00;;
71769;SDS011;66386;52.122;5.420;2023-08-12T15:00:41;4.05;;;1.27;;